Time;durP1;ratioP1;P1;durP2;ratioP2;P2;SDS_P1;SDS_P2;PMS_P1;PMS_P2;Temp;Humidity;BMP_temperature;BMP_pressure;BME280_temperature;BME280_humidity;BME280_pressure;Samples;Min_cycle;Max_cycle;Signal;HPM_P1;HPM_P2
2023/10/26 00:00:31;;;;;;;2.75;0.93;;;19.90;68.50;;;;;;6280011;22;20015;-61
2023/10/26 00:02:57;;;;;;;3.38;0.90;;;19.90;68.50;;;;;;6306606;22;20022;-61
2023/10/26 00:05:23;;;;;;;1.10;0.63;;;19.90;68.50;;;;;;6307461;22;20042;-61
2023/10/26 00:07:48;;;;;;;1.63;0.80;;;19.90;68.50;;;;;;6280509;22;20023;-61
2023/10/26 00:10:14;;;;;;;1.50;0.80;;;19.90;68.50;;;;;;6278945;22;20112;-61
2023/10/26 00:12:39;;;;;;;2.63;0.80;;;19.90;68.50;;;;;;6307836;22;20093;-61
2023/10/26 00:15:06;;;;;;;2.03;0.70;;;19.80;68.50;;;;;;6307045;22;20086;-61
2023/10/26 00:17:31;;;;;;;2.38;0.65;;;19.90;68.60;;;;;;6280334;22;20086;-61
2023/10/26 00:19:57;;;;;;;1.83;0.60;;;19.90;68.50;;;;;;6307868;22;20043;-61
2023/10/26 00:22:22;;;;;;;1.42;0.80;;;19.80;68.50;;;;;;6279240;22;20023;-61
2023/10/26 00:24:49;;;;;;;1.55;0.93;;;19.80;68.50;;;;;;6280150;22;20015;-61
2023/10/26 00:27:14;;;;;;;2.28;0.80;;;19.80;68.50;;;;;;6307349;22;20026;-61
2023/10/26 00:29:40;;;;;;;1.40;0.60;;;19.80;68.40;;;;;;6306691;22;20125;-61
2023/10/26 00:32:06;;;;;;;2.10;0.90;;;19.80;68.40;;;;;;6280254;22;20402;-61
2023/10/26 00:34:35;;;;;;;1.50;0.70;;;19.80;68.40;;;;;;6306913;22;20015;-61
2023/10/26 00:37:00;;;;;;;2.58;0.70;;;19.80;68.40;;;;;;6306647;22;20023;-61
2023/10/26 00:39:26;;;;;;;1.92;0.93;;;19.80;68.40;;;;;;6279702;22;20076;-60
2023/10/26 00:41:55;;;;;;;1.55;0.70;;;19.80;68.40;;;;;;6280214;22;20015;-61
2023/10/26 00:44:21;;;;;;;2.38;0.80;;;19.80;68.40;;;;;;6306113;22;20356;-61
2023/10/26 00:46:47;;;;;;;2.15;0.80;;;19.80;68.40;;;;;;6307767;22;20130;-61
2023/10/26 00:49:15;;;;;;;2.50;0.80;;;19.80;68.40;;;;;;6279533;22;20026;-60
2023/10/26 00:51:43;;;;;;;2.47;0.90;;;19.80;68.40;;;;;;6280043;22;20038;-61
2023/10/26 00:54:09;;;;;;;2.28;0.75;;;19.70;68.40;;;;;;6280549;22;20019;-61
2023/10/26 00:56:35;;;;;;;1.48;0.70;;;19.80;68.40;;;;;;6280336;22;20043;-61
2023/10/26 00:59:03;;;;;;;1.65;0.60;;;19.80;68.40;;;;;;6279025;22;20019;-61
2023/10/26 01:01:30;;;;;;;2.25;0.80;;;19.70;68.30;;;;;;6279702;22;20027;-61
2023/10/26 01:03:56;;;;;;;1.27;0.70;;;19.70;68.30;;;;;;6254468;22;20459;-61
2023/10/26 01:06:21;;;;;;;1.63;0.73;;;19.70;68.30;;;;;;6306256;22;20007;-61
2023/10/26 01:08:47;;;;;;;2.60;0.85;;;19.70;68.30;;;;;;6280314;22;20530;-61
2023/10/26 01:11:13;;;;;;;1.63;0.60;;;19.70;68.30;;;;;;6279526;22;20019;-61
2023/10/26 01:13:39;;;;;;;2.58;0.60;;;19.70;68.30;;;;;;6306820;22;20435;-61
2023/10/26 01:16:04;;;;;;;1.40;0.60;;;19.70;68.30;;;;;;6228962;22;20066;-61
2023/10/26 01:18:30;;;;;;;1.20;0.57;;;19.70;68.30;;;;;;6305747;22;20518;-61
2023/10/26 01:20:56;;;;;;;1.30;0.70;;;19.70;68.30;;;;;;6307215;22;20019;-61
2023/10/26 01:23:21;;;;;;;2.50;0.90;;;19.70;68.30;;;;;;6278904;22;20019;-61
2023/10/26 01:25:51;;;;;;;0.90;0.70;;;19.70;68.30;;;;;;6306098;22;20069;-61
2023/10/26 01:28:17;;;;;;;1.65;0.82;;;19.70;68.30;;;;;;6254168;22;20339;-61
2023/10/26 01:30:42;;;;;;;0.95;0.70;;;19.70;68.30;;;;;;6307262;22;20022;-61
2023/10/26 01:33:08;;;;;;;1.30;0.80;;;19.70;68.20;;;;;;6305676;22;20023;-61
2023/10/26 01:35:43;;;;;;;1.38;0.70;;;19.70;68.20;;;;;;6306816;22;20015;-60
2023/10/26 01:38:08;;;;;;;1.05;0.75;;;19.70;68.20;;;;;;6307066;22;20084;-61
2023/10/26 01:40:34;;;;;;;1.55;0.70;;;19.70;68.20;;;;;;6305570;22;20506;-61
2023/10/26 01:42:59;;;;;;;3.08;1.00;;;19.70;68.20;;;;;;6279651;22;20023;-61
2023/10/26 01:45:25;;;;;;;2.30;0.85;;;19.60;68.20;;;;;;6306659;22;20022;-61
2023/10/26 01:47:51;;;;;;;2.78;0.80;;;19.60;68.20;;;;;;6278650;22;20019;-61
2023/10/26 01:50:17;;;;;;;2.30;0.88;;;19.60;68.20;;;;;;6253975;22;20016;-61
2023/10/26 01:52:44;;;;;;;2.13;0.80;;;19.70;68.20;;;;;;6307122;22;20148;-60
2023/10/26 01:55:09;;;;;;;1.95;0.70;;;19.70;68.20;;;;;;6278263;22;20019;-61
2023/10/26 01:57:35;;;;;;;2.15;1.10;;;19.60;68.20;;;;;;6306751;22;20392;-61
2023/10/26 02:00:00;;;;;;;2.30;0.90;;;19.60;68.20;;;;;;6306370;22;20093;-61
2023/10/26 02:02:26;;;;;;;2.08;0.90;;;19.60;68.20;;;;;;6305232;22;20023;-61
2023/10/26 02:04:51;;;;;;;1.98;0.93;;;19.60;68.20;;;;;;6306294;22;20012;-61
2023/10/26 02:07:17;;;;;;;2.67;0.70;;;19.60;68.20;;;;;;6306412;22;20015;-61
2023/10/26 02:09:42;;;;;;;1.27;0.70;;;19.60;68.20;;;;;;6305916;22;20545;-61
2023/10/26 02:12:08;;;;;;;1.20;0.70;;;19.60;68.20;;;;;;6306991;22;20026;-61
2023/10/26 02:14:34;;;;;;;1.73;0.88;;;19.60;68.20;;;;;;6305736;22;20027;-61
2023/10/26 02:16:59;;;;;;;1.48;0.77;;;19.60;68.20;;;;;;6306864;22;20471;-60
2023/10/26 02:19:25;;;;;;;2.22;0.90;;;19.60;68.20;;;;;;6306575;22;20015;-61
2023/10/26 02:21:50;;;;;;;1.77;0.77;;;19.60;68.20;;;;;;6305762;22;20023;-61
2023/10/26 02:24:16;;;;;;;1.80;0.90;;;19.60;68.20;;;;;;6278938;22;20019;-61
2023/10/26 02:26:41;;;;;;;1.02;0.88;;;19.60;68.20;;;;;;6307023;22;20080;-61
2023/10/26 02:29:07;;;;;;;1.38;0.70;;;19.60;68.20;;;;;;6305961;22;20038;-61
2023/10/26 02:31:32;;;;;;;1.65;0.80;;;19.50;68.10;;;;;;6306357;22;20019;-61
2023/10/26 02:33:58;;;;;;;1.73;0.80;;;19.60;68.10;;;;;;6306725;22;20019;-60
2023/10/26 02:36:23;;;;;;;2.22;1.00;;;19.50;68.10;;;;;;6305276;22;20022;-61
2023/10/26 02:38:49;;;;;;;2.25;0.93;;;19.50;68.10;;;;;;6306938;22;20331;-60
2023/10/26 02:41:15;;;;;;;1.60;0.95;;;19.60;68.10;;;;;;6306217;22;20470;-61
2023/10/26 02:43:40;;;;;;;2.13;0.80;;;19.60;68.10;;;;;;6305793;22;20157;-61
2023/10/26 02:46:06;;;;;;;2.50;0.82;;;19.50;68.10;;;;;;6279370;22;20026;-61
2023/10/26 02:48:32;;;;;;;1.52;0.90;;;19.50;68.10;;;;;;6278930;22;20011;-61
2023/10/26 02:50:58;;;;;;;1.73;0.93;;;19.50;68.10;;;;;;6278155;22;20030;-61
2023/10/26 02:53:23;;;;;;;1.10;0.80;;;19.50;68.10;;;;;;6304579;22;20110;-60
2023/10/26 02:55:49;;;;;;;1.40;1.00;;;19.50;68.10;;;;;;6306804;22;20019;-60
2023/10/26 02:58:14;;;;;;;1.63;0.90;;;19.50;68.10;;;;;;6304940;22;20023;-61
2023/10/26 03:00:40;;;;;;;2.58;1.10;;;19.50;68.10;;;;;;6306101;22;20058;-61
2023/10/26 03:03:05;;;;;;;2.72;1.13;;;19.50;68.10;;;;;;6306431;22;20019;-61
2023/10/26 03:05:33;;;;;;;1.83;1.20;;;19.50;68.00;;;;;;6305538;22;20023;-60
2023/10/26 03:07:59;;;;;;;2.63;1.10;;;19.50;68.00;;;;;;6307004;22;20015;-61
2023/10/26 03:10:25;;;;;;;1.63;1.10;;;19.50;68.00;;;;;;6306037;22;20374;-61
2023/10/26 03:12:52;;;;;;;2.03;1.13;;;19.50;68.00;;;;;;6306759;22;20069;-61
2023/10/26 03:15:18;;;;;;;2.45;1.13;;;19.50;68.00;;;;;;6280576;22;20436;-60
2023/10/26 03:17:44;;;;;;;2.50;1.20;;;19.50;67.90;;;;;;6308512;22;20022;-61
2023/10/26 03:20:10;;;;;;;1.60;1.13;;;19.50;67.90;;;;;;6279624;22;20016;-61
2023/10/26 03:22:35;;;;;;;1.98;1.15;;;19.50;67.90;;;;;;6308131;22;20390;-60
2023/10/26 03:25:01;;;;;;;1.60;1.00;;;19.60;67.90;;;;;;6307246;22;20446;-61
2023/10/26 03:27:27;;;;;;;2.10;1.10;;;19.50;67.90;;;;;;6280377;22;20110;-61
2023/10/26 03:29:53;;;;;;;2.38;1.20;;;19.50;67.90;;;;;;6280780;22;20023;-61
2023/10/26 03:32:19;;;;;;;3.95;1.50;;;19.60;67.90;;;;;;6307183;22;20454;-61
2023/10/26 03:34:44;;;;;;;1.48;1.08;;;19.60;67.90;;;;;;6308432;22;20015;-61
2023/10/26 03:37:10;;;;;;;2.05;1.20;;;19.60;67.90;;;;;;6307863;22;20485;-61
2023/10/26 03:39:36;;;;;;;3.08;1.50;;;19.60;67.90;;;;;;6307346;22;20022;-60
2023/10/26 03:42:01;;;;;;;2.28;1.23;;;19.60;67.80;;;;;;6308250;22;20098;-61
2023/10/26 03:44:28;;;;;;;2.85;1.38;;;19.60;67.80;;;;;;6307401;22;20029;-61
2023/10/26 03:46:53;;;;;;;1.65;1.25;;;19.60;67.80;;;;;;6307476;22;20439;-61
2023/10/26 03:49:19;;;;;;;1.95;1.30;;;19.60;67.80;;;;;;6280257;22;20122;-61
2023/10/26 03:51:46;;;;;;;2.72;1.35;;;19.60;67.80;;;;;;6308311;22;20432;-61
2023/10/26 03:54:12;;;;;;;3.60;1.38;;;19.60;67.80;;;;;;6306961;22;20027;-60
2023/10/26 03:56:38;;;;;;;1.73;1.13;;;19.70;67.80;;;;;;6307731;22;20025;-61
2023/10/26 03:59:03;;;;;;;1.52;1.13;;;19.70;67.80;;;;;;6308178;22;20041;-61
2023/10/26 04:01:29;;;;;;;1.90;1.30;;;19.70;67.80;;;;;;6306404;22;20797;-61
2023/10/26 04:03:54;;;;;;;2.95;1.45;;;19.70;67.70;;;;;;6307759;22;20027;-61
2023/10/26 04:06:20;;;;;;;2.08;1.38;;;19.70;67.70;;;;;;6279565;22;20011;-61
2023/10/26 04:08:45;;;;;;;3.80;1.60;;;19.70;67.70;;;;;;6279492;22;20098;-61
2023/10/26 04:11:17;;;;;;;2.63;1.30;;;19.70;67.70;;;;;;6307315;22;20023;-61
2023/10/26 04:13:43;;;;;;;1.80;1.00;;;19.70;67.70;;;;;;6280367;22;20019;-61
2023/10/26 04:16:09;;;;;;;1.70;1.20;;;19.70;67.70;;;;;;6306831;22;20378;-61
2023/10/26 04:18:34;;;;;;;2.08;1.35;;;19.80;67.70;;;;;;6307953;22;20019;-62
2023/10/26 04:21:00;;;;;;;2.15;1.38;;;19.80;67.70;;;;;;6307962;22;20023;-61
2023/10/26 04:23:27;;;;;;;2.67;1.42;;;19.80;67.70;;;;;;6278440;22;20022;-60
2023/10/26 04:25:53;;;;;;;2.15;1.50;;;19.80;67.70;;;;;;6307522;22;20094;-61
2023/10/26 04:28:18;;;;;;;2.70;1.40;;;19.80;67.70;;;;;;6306743;22;20101;-61
2023/10/26 04:30:45;;;;;;;2.42;1.40;;;19.80;67.60;;;;;;6280148;22;20343;-61
2023/10/26 04:33:11;;;;;;;2.50;1.33;;;19.80;67.60;;;;;;6279862;22;20447;-62
2023/10/26 04:35:43;;;;;;;3.33;1.23;;;19.80;67.60;;;;;;6306765;22;20019;-61
2023/10/26 04:38:08;;;;;;;2.63;1.45;;;19.80;67.60;;;;;;6279796;22;20023;-61
2023/10/26 04:40:35;;;;;;;3.00;1.50;;;19.90;67.60;;;;;;6307784;22;20072;-61
2023/10/26 04:43:02;;;;;;;1.65;1.35;;;19.80;67.60;;;;;;6306917;22;20019;-61
2023/10/26 04:45:27;;;;;;;2.55;1.50;;;19.90;67.60;;;;;;6279526;22;20321;-61
2023/10/26 04:47:53;;;;;;;1.92;1.30;;;19.90;67.60;;;;;;6307620;22;20027;-61
2023/10/26 04:50:18;;;;;;;2.15;1.50;;;19.90;67.60;;;;;;6278752;22;20015;-61
2023/10/26 04:52:44;;;;;;;2.28;1.60;;;19.90;67.60;;;;;;6279995;22;20495;-61
2023/10/26 04:55:09;;;;;;;2.10;1.33;;;19.90;67.60;;;;;;6279542;22;20431;-61
2023/10/26 04:57:35;;;;;;;2.17;1.50;;;19.90;67.60;;;;;;6306391;22;20410;-61
2023/10/26 05:00:00;;;;;;;2.22;1.52;;;19.90;67.60;;;;;;6307270;22;20108;-61
2023/10/26 05:02:26;;;;;;;2.30;1.50;;;19.90;67.60;;;;;;6279547;22;20043;-61
2023/10/26 05:04:52;;;;;;;2.30;1.60;;;19.90;67.60;;;;;;6306645;22;20015;-60
2023/10/26 05:07:17;;;;;;;1.83;1.58;;;19.90;67.60;;;;;;6307096;22;20512;-61
2023/10/26 05:09:43;;;;;;;2.35;1.58;;;19.90;67.60;;;;;;6279791;22;20031;-61
2023/10/26 05:12:08;;;;;;;2.55;1.65;;;19.90;67.60;;;;;;6279177;22;20020;-61
2023/10/26 05:14:34;;;;;;;1.65;1.50;;;19.90;67.60;;;;;;6279528;22;20015;-60
2023/10/26 05:16:59;;;;;;;2.22;1.70;;;19.90;67.60;;;;;;6279578;22;20384;-61
2023/10/26 05:19:25;;;;;;;2.67;1.48;;;20.00;67.70;;;;;;6305646;22;20011;-61
2023/10/26 05:21:50;;;;;;;2.22;1.40;;;20.00;67.70;;;;;;6307540;22;20015;-61
2023/10/26 05:24:16;;;;;;;2.28;1.50;;;20.00;67.70;;;;;;6306340;22;20069;-60
2023/10/26 05:26:41;;;;;;;1.92;1.55;;;20.00;67.70;;;;;;6306358;22;20077;-60
2023/10/26 05:29:07;;;;;;;1.60;1.35;;;20.00;67.70;;;;;;6307213;22;20119;-61
2023/10/26 05:31:33;;;;;;;2.58;1.60;;;20.00;67.70;;;;;;6278550;22;20022;-61
2023/10/26 05:33:58;;;;;;;2.55;1.70;;;20.00;67.70;;;;;;6279406;22;20038;-60
2023/10/26 05:36:24;;;;;;;3.60;2.17;;;20.00;67.70;;;;;;6306440;22;20050;-61
2023/10/26 05:38:50;;;;;;;2.83;1.88;;;20.00;67.70;;;;;;6278612;22;20121;-60
2023/10/26 05:41:15;;;;;;;2.60;1.90;;;20.00;67.60;;;;;;6279055;22;20339;-60
2023/10/26 05:43:41;;;;;;;3.50;2.22;;;20.00;67.50;;;;;;6279464;22;20102;-60
2023/10/26 05:46:06;;;;;;;2.53;1.98;;;20.00;67.50;;;;;;6306229;22;20433;-60
2023/10/26 05:48:33;;;;;;;5.13;2.10;;;20.00;67.50;;;;;;6306423;22;20312;-60
2023/10/26 05:50:59;;;;;;;3.95;2.60;;;20.00;67.50;;;;;;6279451;22;20331;-60
2023/10/26 05:53:25;;;;;;;3.03;2.13;;;20.00;67.50;;;;;;6305619;22;20090;-60
2023/10/26 05:55:59;;;;;;;2.40;2.00;;;20.00;67.50;;;;;;6306965;22;20141;-61
2023/10/26 05:58:25;;;;;;;2.45;1.83;;;20.00;67.60;;;;;;6306767;22;20059;-61
2023/10/26 06:00:51;;;;;;;2.95;1.98;;;20.00;67.60;;;;;;6305811;22;20015;-61
2023/10/26 06:03:16;;;;;;;3.60;1.77;;;20.00;67.60;;;;;;6306227;22;20030;-61
2023/10/26 06:05:42;;;;;;;2.47;1.90;;;20.10;68.20;;;;;;6279143;22;20080;-60
2023/10/26 06:08:07;;;;;;;3.65;1.80;;;20.00;67.60;;;;;;6306075;22;20019;-61
2023/10/26 06:10:33;;;;;;;3.70;2.55;;;20.00;67.60;;;;;;6279151;22;20011;-60
2023/10/26 06:12:59;;;;;;;3.55;2.35;;;20.00;67.60;;;;;;6306605;22;20042;-61
2023/10/26 06:15:24;;;;;;;3.85;2.10;;;20.00;67.70;;;;;;6277979;22;20068;-60
2023/10/26 06:17:50;;;;;;;3.70;2.13;;;20.00;67.70;;;;;;6307894;22;20432;-60
2023/10/26 06:20:16;;;;;;;3.28;2.05;;;20.10;67.70;;;;;;6307499;22;20344;-60
2023/10/26 06:22:42;;;;;;;3.55;2.13;;;20.10;67.70;;;;;;6278631;22;20077;-60
2023/10/26 06:25:08;;;;;;;4.60;2.28;;;20.00;67.80;;;;;;6307049;22;20061;-60
2023/10/26 06:27:34;;;;;;;4.28;2.40;;;20.10;68.00;;;;;;6279652;22;20011;-61
2023/10/26 06:29:59;;;;;;;4.80;1.90;;;20.10;68.00;;;;;;6305733;22;20110;-61
2023/10/26 06:32:25;;;;;;;3.75;2.10;;;20.10;68.00;;;;;;6305897;22;20022;-61
2023/10/26 06:34:51;;;;;;;3.47;2.10;;;20.10;68.10;;;;;;6305758;22;20019;-61
2023/10/26 06:37:16;;;;;;;6.22;2.00;;;20.10;68.20;;;;;;6278596;22;20027;-61
2023/10/26 06:39:42;;;;;;;4.18;2.38;;;20.00;68.20;;;;;;6306928;22;20015;-62
2023/10/26 06:42:07;;;;;;;5.70;2.45;;;20.10;68.30;;;;;;6305896;22;20368;-61
2023/10/26 06:44:33;;;;;;;3.40;2.22;;;20.10;68.40;;;;;;6305694;22;20042;-61
2023/10/26 06:46:59;;;;;;;4.22;2.38;;;20.10;68.50;;;;;;6307513;22;20011;-61
2023/10/26 06:49:24;;;;;;;5.55;2.45;;;20.10;68.50;;;;;;6307109;22;20069;-62
2023/10/26 06:51:50;;;;;;;2.42;1.90;;;20.10;68.50;;;;;;6308234;22;20072;-62
2023/10/26 06:54:16;;;;;;;3.05;1.98;;;20.10;68.60;;;;;;6280572;22;20026;-63
2023/10/26 06:56:44;;;;;;;4.70;2.20;;;20.10;68.60;;;;;;6307865;22;20015;-62
2023/10/26 06:59:10;;;;;;;3.63;2.17;;;20.10;68.60;;;;;;6308393;22;20458;-62
2023/10/26 07:01:36;;;;;;;5.85;2.50;;;20.10;68.60;;;;;;6308302;22;20019;-62
2023/10/26 07:04:02;;;;;;;3.92;2.22;;;20.10;68.70;;;;;;6307815;22;20088;-62
2023/10/26 07:06:27;;;;;;;3.15;2.38;;;20.10;68.80;;;;;;6280713;22;20324;-62
2023/10/26 07:08:54;;;;;;;5.65;2.55;;;20.10;68.80;;;;;;6280924;22;20098;-62
2023/10/26 07:11:19;;;;;;;4.00;2.10;;;20.10;68.80;;;;;;6279732;22;20121;-62
2023/10/26 07:13:45;;;;;;;2.63;1.98;;;20.10;68.80;;;;;;6306027;22;20065;-61
2023/10/26 07:16:11;;;;;;;4.15;2.40;;;20.10;68.90;;;;;;6307798;22;20466;-61
2023/10/26 07:18:37;;;;;;;4.35;2.13;;;20.10;68.90;;;;;;6307401;22;20023;-61
2023/10/26 07:21:07;;;;;;;3.53;2.50;;;20.10;68.90;;;;;;6280184;22;20052;-61
2023/10/26 07:23:33;;;;;;;5.32;2.78;;;20.10;68.90;;;;;;6254770;22;20051;-60
2023/10/26 07:25:59;;;;;;;4.63;2.20;;;20.10;68.90;;;;;;6279877;22;20407;-61
2023/10/26 07:28:24;;;;;;;5.25;2.40;;;20.10;68.90;;;;;;6307888;22;20498;-60
2023/10/26 07:30:53;;;;;;;3.45;2.30;;;20.10;69.00;;;;;;6280287;22;20016;-60
2023/10/26 07:33:19;;;;;;;;;;;20.10;69.00;;;;;;6279671;22;20406;-61
2023/10/26 07:35:50;;;;;;;3.88;2.47;;;20.10;68.90;;;;;;6280693;22;19922;-60
2023/10/26 07:38:16;;;;;;;4.82;2.63;;;20.10;68.90;;;;;;6278536;22;20019;-61
2023/10/26 07:40:50;;;;;;;4.90;2.50;;;20.10;69.00;;;;;;6307011;22;20030;-61
2023/10/26 07:43:16;;;;;;;4.45;2.40;;;20.10;69.00;;;;;;6306751;22;20423;-61
2023/10/26 07:45:41;;;;;;;4.22;2.50;;;20.10;69.00;;;;;;6279124;22;20023;-61
2023/10/26 07:48:07;;;;;;;3.85;2.60;;;20.10;69.10;;;;;;6279556;22;20761;-61
2023/10/26 07:50:33;;;;;;;5.15;2.72;;;20.10;69.00;;;;;;6307306;22;20023;-61
2023/10/26 07:52:58;;;;;;;5.22;2.40;;;20.10;69.10;;;;;;6279501;22;20069;-61
2023/10/26 07:55:24;;;;;;;5.75;2.90;;;20.10;69.10;;;;;;6279886;22;20023;-62
2023/10/26 07:57:50;;;;;;;5.05;2.10;;;20.10;69.10;;;;;;6307662;22;20050;-61
2023/10/26 08:00:16;;;;;;;4.50;2.60;;;20.10;69.10;;;;;;6278900;22;20086;-61
2023/10/26 08:02:41;;;;;;;4.18;2.55;;;20.10;69.10;;;;;;6280174;22;20394;-62
2023/10/26 08:05:08;;;;;;;3.47;2.42;;;20.10;69.10;;;;;;6279473;22;20015;-61
2023/10/26 08:07:34;;;;;;;3.85;2.53;;;20.10;69.10;;;;;;6279177;22;20015;-61
2023/10/26 08:10:00;;;;;;;4.60;2.53;;;20.10;69.10;;;;;;6278377;22;20015;-60
2023/10/26 08:12:25;;;;;;;5.55;2.70;;;20.10;69.10;;;;;;6279229;22;20023;-61
2023/10/26 08:14:51;;;;;;;3.95;2.65;;;20.10;69.10;;;;;;6278580;22;20020;-61
2023/10/26 08:17:17;;;;;;;3.08;2.28;;;20.10;69.10;;;;;;6279306;22;20097;-61
2023/10/26 08:19:42;;;;;;;3.97;2.22;;;20.10;69.10;;;;;;6278595;22;20042;-61
2023/10/26 08:22:10;;;;;;;3.58;2.35;;;20.10;69.10;;;;;;6278814;22;20026;-61
2023/10/26 08:24:36;;;;;;;4.03;2.33;;;20.10;69.10;;;;;;6306639;22;20018;-60
2023/10/26 08:27:01;;;;;;;3.60;2.75;;;20.10;69.10;;;;;;6307030;22;20019;-60
2023/10/26 08:29:29;;;;;;;3.55;2.50;;;20.10;69.10;;;;;;6277746;22;20442;-61
2023/10/26 08:31:57;;;;;;;3.58;2.67;;;20.10;69.10;;;;;;6306829;22;20023;-60
2023/10/26 08:34:23;;;;;;;3.60;2.60;;;20.10;69.10;;;;;;6278532;22;20030;-60
2023/10/26 08:36:48;;;;;;;3.10;2.55;;;20.10;69.10;;;;;;6308455;22;20443;-60
2023/10/26 08:39:14;;;;;;;3.65;2.42;;;20.10;69.10;;;;;;6279422;22;20027;-60
2023/10/26 08:41:42;;;;;;;4.10;2.63;;;20.10;69.70;;;;;;6279048;22;20023;-60
2023/10/26 08:44:08;;;;;;;3.95;2.30;;;20.10;69.00;;;;;;6229298;22;20100;-60
2023/10/26 08:46:34;;;;;;;3.55;2.70;;;20.10;69.00;;;;;;6254520;22;20099;-60
2023/10/26 08:48:59;;;;;;;3.28;2.60;;;20.10;68.90;;;;;;6279400;22;20015;-60
2023/10/26 08:51:26;;;;;;;4.57;2.58;;;20.20;68.80;;;;;;6228761;22;20054;-60
2023/10/26 08:53:51;;;;;;;4.40;2.90;;;20.20;68.70;;;;;;6254296;22;20019;-61
2023/10/26 08:56:20;;;;;;;3.78;2.40;;;20.20;68.70;;;;;;6253345;22;20095;-61
2023/10/26 08:58:46;;;;;;;4.85;2.67;;;20.20;68.70;;;;;;6279792;22;20019;-60
2023/10/26 09:01:12;;;;;;;5.47;2.78;;;20.20;68.70;;;;;;6306504;22;20096;-61
2023/10/26 09:03:37;;;;;;;4.50;2.83;;;20.30;68.70;;;;;;6277706;22;20461;-61
2023/10/26 09:06:03;;;;;;;4.68;2.70;;;20.30;68.70;;;;;;6279009;22;20102;-61
2023/10/26 09:08:30;;;;;;;4.90;2.67;;;20.30;69.30;;;;;;6305524;22;20026;-61
2023/10/26 09:10:56;;;;;;;7.15;2.42;;;20.30;68.60;;;;;;6305776;22;20512;-61
2023/10/26 09:13:29;;;;;;;4.72;2.63;;;20.30;68.60;;;;;;6306005;22;20019;-61
2023/10/26 09:15:57;;;;;;;4.00;3.30;;;20.30;68.60;;;;;;6279464;22;20351;-61
2023/10/26 09:18:24;;;;;;;4.40;2.53;;;20.30;68.60;;;;;;6305738;22;20355;-61
2023/10/26 09:21:05;;;;;;;5.22;2.60;;;20.30;68.50;;;;;;6307649;22;20035;-61
2023/10/26 09:23:31;;;;;;;4.07;2.67;;;20.30;68.60;;;;;;6306893;22;20054;-61
2023/10/26 09:25:58;;;;;;;7.88;3.20;;;20.30;68.60;;;;;;6306473;22;20042;-62
2023/10/26 09:28:24;;;;;;;4.82;2.80;;;20.30;68.60;;;;;;6307061;22;20042;-61
2023/10/26 09:30:49;;;;;;;5.03;2.65;;;20.30;68.70;;;;;;6306268;22;20072;-62
2023/10/26 09:33:23;;;;;;;4.07;2.47;;;20.30;68.70;;;;;;6279249;22;20064;-61
2023/10/26 09:35:48;;;;;;;5.72;2.63;;;20.30;68.80;;;;;;6307501;22;20091;-64
2023/10/26 09:38:14;;;;;;;5.80;2.47;;;20.30;68.80;;;;;;6278308;22;20046;-62
2023/10/26 09:40:40;;;;;;;5.25;2.55;;;20.40;68.90;;;;;;6279661;22;20011;-62
2023/10/26 09:43:05;;;;;;;5.53;2.90;;;20.40;68.80;;;;;;6279779;22;20049;-62
2023/10/26 09:45:31;;;;;;;5.05;2.97;;;20.30;68.80;;;;;;6277912;22;20015;-61
2023/10/26 09:47:56;;;;;;;5.38;3.00;;;20.30;68.70;;;;;;6254253;22;20023;-61
2023/10/26 09:50:22;;;;;;;5.28;2.70;;;20.30;68.70;;;;;;6253399;22;20023;-61
2023/10/26 09:52:47;;;;;;;5.20;2.63;;;20.30;68.70;;;;;;6227358;22;20455;-62
2023/10/26 09:55:13;;;;;;;4.90;3.08;;;20.40;68.80;;;;;;6279129;22;20340;-61
2023/10/26 09:57:50;;;;;;;5.10;2.90;;;20.30;68.80;;;;;;6254135;22;20390;-62
2023/10/26 10:00:17;;;;;;;3.78;2.65;;;20.40;68.80;;;;;;6252715;22;20076;-62
2023/10/26 10:02:43;;;;;;;4.97;2.90;;;20.30;68.80;;;;;;6306447;22;20551;-61
2023/10/26 10:05:34;;;;;;;4.45;2.85;;;20.30;68.80;;;;;;6307169;22;20094;-62
2023/10/26 10:08:00;;;;;;;3.88;2.45;;;20.30;68.90;;;;;;6305845;22;20329;-62
2023/10/26 10:10:25;;;;;;;3.40;2.67;;;20.30;68.90;;;;;;6306579;22;20427;-61
2023/10/26 10:12:51;;;;;;;5.72;2.80;;;20.30;68.90;;;;;;6306125;22;20331;-62
2023/10/26 10:15:17;;;;;;;4.05;2.83;;;20.30;69.00;;;;;;6278854;22;20093;-62
2023/10/26 10:17:46;;;;;;;3.95;2.80;;;20.30;69.00;;;;;;6253818;22;20023;-63
2023/10/26 10:20:15;;;;;;;3.47;2.55;;;20.30;69.00;;;;;;6278067;22;20018;-63
2023/10/26 10:22:41;;;;;;;6.28;3.50;;;20.30;69.00;;;;;;6309140;22;20030;-63
2023/10/26 10:25:10;;;;;;;4.72;2.67;;;20.30;69.10;;;;;;6309186;22;20011;-62
2023/10/26 10:27:39;;;;;;;7.63;2.80;;;20.30;69.10;;;;;;6308266;22;20022;-64
2023/10/26 10:30:08;;;;;;;5.95;2.85;;;20.30;69.00;;;;;;6308973;22;20037;-63
2023/10/26 10:32:48;;;;;;;6.07;3.25;;;20.30;69.00;;;;;;6280855;22;20019;-63
2023/10/26 10:35:54;;;;;;;4.57;3.63;;;20.30;69.10;;;;;;6279579;22;20015;-62
2023/10/26 10:38:20;;;;;;;4.38;2.72;;;20.30;69.00;;;;;;6233536;22;20019;-62
2023/10/26 10:40:55;;;;;;;6.43;3.47;;;20.30;69.00;;;;;;6308231;22;20015;-62
2023/10/26 10:43:34;;;;;;;4.97;3.10;;;20.30;69.00;;;;;;6307954;22;20455;-67
2023/10/26 10:46:18;;;;;;;3.95;3.03;;;20.30;69.10;;;;;;6307901;22;20061;-63
2023/10/26 10:49:06;;;;;;;4.57;3.60;;;20.30;69.10;;;;;;6307874;22;20015;-62
2023/10/26 10:51:35;;;;;;;4.40;3.08;;;20.30;69.10;;;;;;6308871;22;20020;-63
2023/10/26 10:54:05;;;;;;;4.32;3.08;;;20.30;69.10;;;;;;6308851;22;20064;-63
2023/10/26 10:56:44;;;;;;;6.68;3.30;;;20.30;69.20;;;;;;6307393;22;20023;-63
2023/10/26 10:59:30;;;;;;;6.00;3.40;;;20.30;69.20;;;;;;6308332;22;20019;-63
2023/10/26 11:02:09;;;;;;;6.40;3.47;;;20.30;69.20;;;;;;6280766;22;20023;-60
2023/10/26 11:04:49;;;;;;;6.95;3.25;;;20.30;69.20;;;;;;6281062;22;20061;-59
2023/10/26 11:07:14;;;;;;;7.68;3.97;;;20.20;69.20;;;;;;6307517;22;20443;-62
2023/10/26 11:09:40;;;;;;;6.63;3.80;;;20.20;69.30;;;;;;6279809;22;20064;-62
2023/10/26 11:12:10;;;;;;;8.35;4.20;;;20.20;69.20;;;;;;6281252;22;20039;-62
2023/10/26 11:14:35;;;;;;;8.02;4.20;;;20.20;69.20;;;;;;6280795;22;20019;-62
2023/10/26 11:17:01;;;;;;;7.88;3.60;;;20.20;69.10;;;;;;6279753;22;20019;-62
2023/10/26 11:19:26;;;;;;;27.77;5.15;;;20.20;69.10;;;;;;6280597;22;20023;-62
2023/10/26 11:21:55;;;;;;;8.38;3.83;;;20.20;69.30;;;;;;6280688;22;20026;-64
2023/10/26 11:24:29;;;;;;;12.90;4.50;;;20.20;69.80;;;;;;6307026;22;20023;-62
2023/10/26 11:27:09;;;;;;;13.32;4.13;;;20.20;69.10;;;;;;6280437;22;20027;-63
2023/10/26 11:29:34;;;;;;;9.75;4.40;;;20.20;69.10;;;;;;6307051;22;20102;-63
2023/10/26 11:32:00;;;;;;;11.45;4.05;;;20.20;69.00;;;;;;6276771;22;20100;-68
2023/10/26 11:34:27;;;;;;;14.15;3.92;;;20.20;69.10;;;;;;6280067;22;20011;-60
2023/10/26 11:36:53;;;;;;;14.20;3.90;;;20.20;69.10;;;;;;6306735;22;20402;-61
2023/10/26 11:39:19;;;;;;;9.95;3.85;;;20.20;69.10;;;;;;6306334;22;20023;-61
2023/10/26 11:41:54;;;;;;;9.23;4.28;;;20.20;69.10;;;;;;6280620;22;20011;-63
2023/10/26 11:44:24;;;;;;;11.02;4.05;;;20.20;68.80;;;;;;6306462;22;20019;-61
2023/10/26 11:47:00;;;;;;;12.88;3.85;;;20.20;68.70;;;;;;6280492;22;20343;-62
2023/10/26 11:49:43;;;;;;;9.27;4.20;;;20.30;68.60;;;;;;6307811;22;20023;-60
2023/10/26 11:52:08;;;;;;;8.45;3.60;;;20.30;68.60;;;;;;6306694;22;20019;-61
2023/10/26 11:54:34;;;;;;;13.90;3.47;;;20.30;68.60;;;;;;6307527;22;20019;-61
2023/10/26 11:56:59;;;;;;;9.18;3.53;;;20.30;68.70;;;;;;6305803;22;20026;-61
2023/10/26 11:59:25;;;;;;;8.35;3.47;;;20.30;68.70;;;;;;6306583;22;20335;-61
2023/10/26 12:01:50;;;;;;;9.23;3.47;;;20.30;68.80;;;;;;6307744;22;20023;-61
2023/10/26 12:04:16;;;;;;;7.53;3.20;;;20.30;68.80;;;;;;6279660;22;20023;-60
2023/10/26 12:06:42;;;;;;;7.00;3.72;;;20.30;68.80;;;;;;6305781;22;20015;-61
2023/10/26 12:09:07;;;;;;;11.25;3.47;;;20.30;68.80;;;;;;6307344;22;20019;-62
2023/10/26 12:11:33;;;;;;;6.88;3.42;;;20.30;68.80;;;;;;6306959;22;20436;-61
2023/10/26 12:13:58;;;;;;;11.13;3.38;;;20.40;68.80;;;;;;6305807;22;20023;-61
2023/10/26 12:16:24;;;;;;;9.30;3.22;;;20.40;68.80;;;;;;6306684;22;20499;-62
2023/10/26 12:18:51;;;;;;;9.55;3.13;;;20.40;68.80;;;;;;6279684;22;20023;-60
2023/10/26 12:21:16;;;;;;;10.48;3.55;;;20.40;68.80;;;;;;6306636;22;20094;-63
2023/10/26 12:23:42;;;;;;;7.03;3.15;;;20.40;68.70;;;;;;6280224;22;20062;-63
2023/10/26 12:26:07;;;;;;;4.72;2.80;;;20.50;68.70;;;;;;6307966;22;20026;-60
2023/10/26 12:28:33;;;;;;;6.85;3.10;;;20.50;68.50;;;;;;6306211;22;20015;-60
2023/10/26 12:30:58;;;;;;;7.75;3.00;;;20.60;68.30;;;;;;6307629;22;20054;-60
2023/10/26 12:33:24;;;;;;;6.50;3.33;;;20.60;68.30;;;;;;6307160;22;20018;-60
2023/10/26 12:35:50;;;;;;;7.22;3.45;;;20.60;67.80;;;;;;6306835;22;20042;-59
2023/10/26 12:38:19;;;;;;;6.68;3.25;;;20.60;67.50;;;;;;6307445;22;20015;-60
2023/10/26 12:40:48;;;;;;;5.47;3.10;;;20.60;67.50;;;;;;6306703;22;20518;-59
2023/10/26 12:43:13;;;;;;;9.45;3.17;;;20.60;67.70;;;;;;6307470;22;20023;-60